Terminal Aerodrome Forecast
Issued by NWS

Home | Current Version | Previous Version | Text Only | Print | Product List | Glossary On
Versions: 1 2 3 4 5 6 7 8 9 10 11 12 13 14
813
FTPA31 PHFO 050306 AAA
TAFHJR
TAF AMD
PHJR 050306Z 0503/0524 24009KT P6SM -SHRA SCT025 BKN050 OVC150
     FM050500 VRB05KT P6SM -SHRA SCT020 BKN050 BKN150
     FM051000 VRB04KT P6SM FEW020 SCT050
     FM052000 24009KT P6SM SCT020 SCT050=

USA.gov is the U.S. government's official web portal to all federal, state and local government web resources and services.